Time,TemperatureF,DewpointF,PressureIn,WindDirection,WindDirectionDegrees,WindSpeedMPH,WindSpeedGustMPH,Humidity,HourlyPrecipIn,Conditions,Clouds,dailyrainin,SoftwareType,DateUTC
2013-05-19 00:07:00,68.9,67.7,29.26,NNW,338,0.0,0.0,96,0.00,,OVC240,0.00,VWS V14.01,2013-05-19 05:07:00,
2013-05-19 00:17:00,68.9,67.7,29.26,NNW,338,0.0,0.0,96,0.00,,OVC240,0.00,VWS V14.01,2013-05-19 05:17:00,
2013-05-19 00:27:00,68.9,67.7,29.26,NNW,338,0.0,0.0,96,0.00,,OVC240,0.00,VWS V14.01,2013-05-19 05:27:00,
2013-05-19 00:37:00,69.1,67.9,29.26,NNW,338,0.0,0.0,96,0.00,,OVC240,0.00,VWS V14.01,2013-05-19 05:37:00,
2013-05-19 00:47:00,69.3,68.4,29.29,NNW,338,0.0,0.0,97,0.00,,OVC240,0.00,VWS V14.01,2013-05-19 05:47:00,
2013-05-19 00:57:00,69.3,68.4,29.26,NNW,338,0.0,0.0,97,0.00,,OVC240,0.00,VWS V14.01,2013-05-19 05:57:00,
2013-05-19 01:07:00,69.3,68.4,29.26,NNW,338,0.0,0.0,97,0.00,,OVC240,0.00,VWS V14.01,2013-05-19 06:07:00,
2013-05-19 01:17:00,69.1,67.9,29.26,NNW,338,0.0,0.0,96,0.00,,OVC240,0.00,VWS V14.01,2013-05-19 06:17:00,
2013-05-19 01:27:00,68.7,67.5,29.26,NNW,338,0.0,0.0,96,0.00,,OVC240,0.00,VWS V14.01,2013-05-19 06:27:00,
2013-05-19 01:37:00,68.7,67.5,29.26,NNW,338,0.0,0.0,96,0.00,,OVC240,0.00,VWS V14.01,2013-05-19 06:37:00,
2013-05-19 01:57:00,68.4,67.5,29.26,NNW,338,0.0,0.0,97,0.00,,OVC240,0.00,VWS V14.01,2013-05-19 06:57:00,
2013-05-19 02:07:00,68.5,67.7,29.26,NNW,338,0.0,0.0,97,0.00,,OVC240,0.00,VWS V14.01,2013-05-19 07:07:00,
2013-05-19 02:17:00,68.9,68.0,29.26,West,270,0.0,0.0,97,0.00,,OVC240,0.00,VWS V14.01,2013-05-19 07:17:00,
2013-05-19 02:27:00,68.9,68.0,29.26,West,270,0.0,0.0,97,0.00,,OVC240,0.00,VWS V14.01,2013-05-19 07:27:00,
2013-05-19 02:37:00,68.9,68.0,29.26,West,270,0.0,0.0,97,0.00,,OVC240,0.00,VWS V14.01,2013-05-19 07:37:00,
2013-05-19 02:47:00,68.9,68.0,29.26,West,270,0.0,0.0,97,0.00,,OVC240,0.00,VWS V14.01,2013-05-19 07:47:00,
2013-05-19 02:57:00,68.9,68.0,29.26,West,270,0.0,0.0,97,0.00,,OVC240,0.00,VWS V14.01,2013-05-19 07:57:00,
2013-05-19 03:07:00,68.9,68.0,29.26,West,270,0.0,0.0,97,0.00,,OVC240,0.00,VWS V14.01,2013-05-19 08:07:00,
2013-05-19 03:17:00,68.9,68.0,29.26,West,270,0.0,0.0,97,0.00,,OVC240,0.00,VWS V14.01,2013-05-19 08:17:00,
2013-05-19 03:27:00,68.7,67.8,29.26,West,270,0.0,0.0,97,0.00,,OVC240,0.00,VWS V14.01,2013-05-19 08:27:00,
2013-05-19 03:37:00,68.9,68.0,29.26,West,270,0.0,0.0,97,0.00,,OVC240,0.00,VWS V14.01,2013-05-19 08:37:00,
2013-05-19 03:47:00,68.9,68.0,29.26,West,270,0.0,0.0,97,0.00,,OVC240,0.00,VWS V14.01,2013-05-19 08:47:00,
2013-05-19 03:57:00,68.7,67.8,29.26,West,270,0.0,0.0,97,0.00,,OVC240,0.00,VWS V14.01,2013-05-19 08:57:00,
2013-05-19 04:07:00,68.7,67.8,29.26,West,270,0.0,0.0,97,0.00,,OVC240,0.00,VWS V14.01,2013-05-19 09:07:00,
2013-05-19 04:17:00,68.7,67.8,29.26,West,270,0.0,0.0,97,0.00,,OVC240,0.00,VWS V14.01,2013-05-19 09:17:00,
2013-05-19 04:27:00,68.9,68.0,29.26,West,270,0.0,0.0,97,0.00,,OVC240,0.00,VWS V14.01,2013-05-19 09:27:00,
2013-05-19 04:37:00,68.9,68.0,29.26,West,270,0.0,0.0,97,0.00,,OVC240,0.00,VWS V14.01,2013-05-19 09:37:00,
2013-05-19 04:47:00,68.9,68.0,29.26,West,270,0.0,0.0,97,0.00,,OVC240,0.00,VWS V14.01,2013-05-19 09:47:00,
2013-05-19 04:57:00,68.5,67.7,29.26,West,270,0.0,0.0,97,0.00,,OVC240,0.00,VWS V14.01,2013-05-19 09:57:00,
2013-05-19 05:07:00,68.4,67.5,29.26,West,270,0.0,0.0,97,0.00,,OVC240,0.00,VWS V14.01,2013-05-19 10:07:00,
2013-05-19 05:17:00,68.2,67.3,29.26,West,270,0.0,0.0,97,0.00,,OVC240,0.00,VWS V14.01,2013-05-19 10:17:00,
2013-05-19 05:27:00,68.4,67.5,29.26,West,270,0.0,0.0,97,0.00,,OVC240,0.00,VWS V14.01,2013-05-19 10:27:00,
2013-05-19 05:37:00,68.5,67.7,29.26,West,270,0.0,0.0,97,0.00,,OVC240,0.00,VWS V14.01,2013-05-19 10:37:00,
2013-05-19 05:47:00,68.5,67.7,29.26,West,270,0.0,0.0,97,0.00,,OVC240,0.00,VWS V14.01,2013-05-19 10:47:00,
2013-05-19 05:57:00,68.7,67.8,29.26,West,270,0.0,0.0,97,0.00,,OVC240,0.00,VWS V14.01,2013-05-19 10:57:00,
2013-05-19 06:07:00,68.9,68.0,29.26,West,270,0.0,0.0,97,0.00,,OVC240,0.00,VWS V14.01,2013-05-19 11:07:00,
2013-05-19 06:17:00,69.3,68.4,29.26,West,270,0.0,0.0,97,0.00,,OVC240,0.00,VWS V14.01,2013-05-19 11:17:00,
2013-05-19 06:27:00,69.4,68.8,29.23,West,270,0.0,0.0,98,0.00,,OVC240,0.00,VWS V14.01,2013-05-19 11:27:00,
2013-05-19 06:37:00,70.0,69.1,29.23,North,0,0.0,0.0,97,0.00,,OVC240,0.00,VWS V14.01,2013-05-19 11:37:00,
2013-05-19 06:47:00,70.2,69.3,29.26,SSW,202,0.0,0.0,97,0.00,,OVC240,0.00,VWS V14.01,2013-05-19 11:47:00,
2013-05-19 06:57:00,70.2,69.3,29.26,North,0,1.1,1.1,97,0.00,,OVC240,0.00,VWS V14.01,2013-05-19 11:57:00,
2013-05-19 07:00:00,70.2,69.3,29.26,North,0,1.1,1.1,97,0.00,,OVC240,0.00,VWS V14.01,2013-05-19 12:00:00,
2013-05-19 07:07:00,70.0,69.1,29.26,NW,315,0.0,0.0,97,0.04,,OVC240,0.04,VWS V14.01,2013-05-19 12:07:00,
2013-05-19 07:10:00,70.0,69.1,29.26,NW,315,0.0,0.0,97,0.04,,OVC240,0.04,VWS V14.01,2013-05-19 12:10:00,
2013-05-19 07:17:00,69.8,68.9,29.26,SW,225,0.0,0.0,97,0.04,,OVC240,0.04,VWS V14.01,2013-05-19 12:17:00,
2013-05-19 07:20:00,69.8,68.9,29.26,SW,225,0.0,0.0,97,0.04,,OVC240,0.04,VWS V14.01,2013-05-19 12:20:00,
2013-05-19 07:27:00,69.8,68.9,29.26,West,270,0.0,0.0,97,0.21,,OVC240,0.21,VWS V14.01,2013-05-19 12:27:00,
2013-05-19 07:30:00,69.8,68.9,29.26,West,270,0.0,0.0,97,0.21,,OVC240,0.21,VWS V14.01,2013-05-19 12:30:00,
2013-05-19 07:37:00,69.8,68.9,29.26,North,0,2.9,2.9,97,0.38,,OVC240,0.38,VWS V14.01,2013-05-19 12:37:00,
2013-05-19 07:40:00,69.8,68.9,29.26,North,0,2.9,2.9,97,0.38,,OVC240,0.38,VWS V14.01,2013-05-19 12:40:00,
2013-05-19 07:47:00,69.6,69.0,29.26,North,0,1.3,2.0,98,0.62,,OVC240,0.62,VWS V14.01,2013-05-19 12:47:00,
2013-05-19 07:50:00,69.6,69.0,29.26,North,0,1.3,2.0,98,0.62,,OVC240,0.62,VWS V14.01,2013-05-19 12:50:00,
2013-05-19 07:57:00,69.6,69.0,29.26,North,0,0.0,0.0,98,0.62,,OVC240,0.62,VWS V14.01,2013-05-19 12:57:00,
2013-05-19 08:00:00,69.6,69.0,29.26,North,0,0.0,0.0,98,0.62,,OVC240,0.62,VWS V14.01,2013-05-19 13:00:00,
2013-05-19 08:07:00,69.6,69.0,29.26,North,0,2.9,2.9,98,0.62,,OVC240,0.62,VWS V14.01,2013-05-19 13:07:00,
2013-05-19 08:10:00,69.6,69.0,29.26,North,0,2.9,2.9,98,0.62,,OVC240,0.62,VWS V14.01,2013-05-19 13:10:00,
2013-05-19 08:17:00,69.6,69.0,29.32,NNE,22,2.9,2.9,98,0.58,,OVC240,0.62,VWS V14.01,2013-05-19 13:17:00,
2013-05-19 08:20:00,69.6,69.0,29.32,NNE,22,2.9,2.9,98,0.58,,OVC240,0.62,VWS V14.01,2013-05-19 13:20:00,
2013-05-19 08:27:00,69.4,68.8,29.26,SE,135,0.0,0.0,98,0.58,,OVC240,0.62,VWS V14.01,2013-05-19 13:27:00,
2013-05-19 08:30:00,69.4,68.9,29.26,SE,135,0.0,0.0,98,0.58,,OVC240,0.62,VWS V14.01,2013-05-19 13:30:00,
2013-05-19 08:47:00,69.3,68.7,29.32,WNW,292,1.3,1.3,98,0.41,,OVC240,0.62,VWS V14.01,2013-05-19 13:47:00,
2013-05-19 08:50:00,69.3,68.7,29.32,WNW,292,1.3,1.3,98,0.41,,OVC240,0.62,VWS V14.01,2013-05-19 13:50:00,
2013-05-19 08:55:00,69.4,68.8,29.29,WNW,292,0.0,0.0,98,0.00,,OVC240,0.62,VWS V14.01,2013-05-19 13:55:00,
2013-05-19 08:57:00,69.4,68.9,29.29,WNW,292,0.0,0.0,98,0.00,,OVC240,0.62,VWS V14.01,2013-05-19 13:57:00,
2013-05-19 09:00:00,69.4,68.9,29.29,WNW,292,0.0,0.0,98,0.00,,OVC240,0.62,VWS V14.01,2013-05-19 14:00:00,
2013-05-19 09:07:00,70.0,69.1,29.29,WNW,292,1.3,1.3,97,0.00,,OVC240,0.62,VWS V14.01,2013-05-19 14:07:00,
2013-05-19 09:10:00,70.0,69.1,29.29,WNW,292,1.3,1.3,97,0.00,,OVC240,0.62,VWS V14.01,2013-05-19 14:10:00,
2013-05-19 09:17:00,70.2,69.6,29.29,NE,45,0.0,0.0,98,0.00,,OVC240,0.62,VWS V14.01,2013-05-19 14:17:00,
2013-05-19 09:20:00,70.2,69.6,29.29,NE,45,0.0,0.0,98,0.00,,OVC240,0.62,VWS V14.01,2013-05-19 14:20:00,
2013-05-19 09:27:00,70.9,70.3,29.26,NE,45,0.0,0.0,98,0.00,,OVC240,0.62,VWS V14.01,2013-05-19 14:27:00,
2013-05-19 09:30:00,70.9,70.3,29.26,NE,45,0.0,0.0,98,0.00,,OVC240,0.62,VWS V14.01,2013-05-19 14:30:00,
2013-05-19 09:37:00,71.4,70.8,29.26,SE,135,2.0,2.0,98,0.05,,OVC240,0.67,VWS V14.01,2013-05-19 14:37:00,
2013-05-19 09:40:00,71.4,70.8,29.26,SE,135,2.0,2.0,98,0.05,,OVC240,0.67,VWS V14.01,2013-05-19 14:40:00,
2013-05-19 09:47:00,71.4,70.8,29.26,West,270,0.0,0.0,98,0.05,,OVC240,0.67,VWS V14.01,2013-05-19 14:47:00,
2013-05-19 09:50:00,71.4,70.8,29.26,West,270,0.0,0.0,98,0.05,,OVC240,0.67,VWS V14.01,2013-05-19 14:50:00,
2013-05-19 10:07:00,70.7,69.8,29.26,SSW,202,0.0,0.0,97,0.34,,OVC240,0.96,VWS V14.01,2013-05-19 15:07:00,
2013-05-19 10:10:00,70.7,69.8,29.26,SSW,202,0.0,0.0,97,0.34,,OVC240,0.96,VWS V14.01,2013-05-19 15:10:00,
2013-05-19 10:17:00,70.5,69.6,29.29,West,270,2.2,2.2,97,0.38,,OVC240,1.00,VWS V14.01,2013-05-19 15:17:00,
2013-05-19 10:20:00,70.5,69.6,29.29,West,270,2.2,2.2,97,0.38,,OVC240,1.00,VWS V14.01,2013-05-19 15:20:00,
2013-05-19 10:27:00,70.7,69.8,29.26,South,180,1.6,1.6,97,0.38,,OVC240,1.00,VWS V14.01,2013-05-19 15:27:00,
2013-05-19 10:30:00,70.7,69.8,29.26,South,180,1.6,1.6,97,0.38,,OVC240,1.00,VWS V14.01,2013-05-19 15:30:00,
2013-05-19 10:37:00,70.5,69.9,29.26,West,270,0.9,1.3,98,0.38,,OVC240,1.00,VWS V14.01,2013-05-19 15:37:00,
2013-05-19 10:40:00,70.5,69.9,29.26,West,270,0.9,1.3,98,0.38,,OVC240,1.00,VWS V14.01,2013-05-19 15:40:00,
2013-05-19 10:47:00,70.7,70.1,29.26,SE,135,2.0,2.0,98,0.33,,OVC240,1.00,VWS V14.01,2013-05-19 15:47:00,
2013-05-19 10:50:00,70.7,70.1,29.26,SE,135,2.0,2.0,98,0.33,,OVC240,1.00,VWS V14.01,2013-05-19 15:50:00,
2013-05-19 10:57:00,70.9,70.3,29.29,SW,225,0.0,0.0,98,0.33,,OVC240,1.00,VWS V14.01,2013-05-19 15:57:00,
2013-05-19 11:00:00,70.9,70.3,29.29,SW,225,0.0,0.0,98,0.33,,OVC240,1.00,VWS V14.01,2013-05-19 16:00:00,
2013-05-19 11:08:00,71.4,70.8,29.29,SE,135,2.5,2.5,98,0.04,,OVC240,1.00,VWS V14.01,2013-05-19 16:08:00,
2013-05-19 11:10:00,71.4,70.8,29.29,SE,135,2.5,2.5,98,0.04,,OVC240,1.00,VWS V14.01,2013-05-19 16:10:00,
2013-05-19 11:17:00,71.1,70.2,29.29,SW,225,0.9,1.1,97,0.04,,OVC240,1.00,VWS V14.01,2013-05-19 16:17:00,
2013-05-19 11:20:00,71.1,70.2,29.29,SW,225,0.9,1.1,97,0.04,,OVC240,1.00,VWS V14.01,2013-05-19 16:20:00,
2013-05-19 11:27:00,71.2,70.3,29.32,SSE,158,2.7,2.7,97,0.00,,OVC240,1.00,VWS V14.01,2013-05-19 16:27:00,
2013-05-19 11:30:00,71.2,70.3,29.32,SSE,158,2.7,2.7,97,0.00,,OVC240,1.00,VWS V14.01,2013-05-19 16:30:00,
2013-05-19 11:37:00,71.2,70.3,29.32,WSW,248,1.1,2.2,97,0.00,,OVC240,1.00,VWS V14.01,2013-05-19 16:37:00,
2013-05-19 11:40:00,71.2,70.3,29.32,WSW,248,1.1,2.2,97,0.00,,OVC240,1.00,VWS V14.01,2013-05-19 16:40:00,
2013-05-19 11:47:00,71.2,70.3,29.26,SSE,158,0.9,1.1,97,0.00,,OVC240,1.00,VWS V14.01,2013-05-19 16:47:00,
2013-05-19 11:50:00,71.2,70.3,29.26,SSE,158,0.9,1.1,97,0.00,,OVC240,1.00,VWS V14.01,2013-05-19 16:50:00,
2013-05-19 11:57:00,71.4,70.5,29.29,NW,315,1.1,2.2,97,0.00,,OVC240,1.00,VWS V14.01,2013-05-19 16:57:00,
2013-05-19 12:00:00,71.4,70.5,29.29,NW,315,1.1,2.2,97,0.00,,OVC240,1.00,VWS V14.01,2013-05-19 17:00:00,
2013-05-19 12:07:00,72.7,71.8,29.29,North,0,0.0,0.0,97,0.00,,OVC240,1.00,VWS V14.01,2013-05-19 17:07:00,
2013-05-19 12:10:00,72.7,71.8,29.29,North,0,0.0,0.0,97,0.00,,OVC240,1.00,VWS V14.01,2013-05-19 17:10:00,
2013-05-19 12:17:00,72.7,71.8,29.29,ESE,112,0.9,0.9,97,0.00,,OVC240,1.00,VWS V14.01,2013-05-19 17:17:00,
2013-05-19 12:20:00,72.7,71.8,29.29,ESE,112,0.9,0.9,97,0.00,,OVC240,1.00,VWS V14.01,2013-05-19 17:20:00,
2013-05-19 12:27:00,72.9,71.7,29.29,South,180,1.1,2.0,96,0.00,,OVC240,1.00,VWS V14.01,2013-05-19 17:27:00,
2013-05-19 12:30:00,72.9,71.7,29.29,South,180,1.1,2.0,96,0.00,,OVC240,1.00,VWS V14.01,2013-05-19 17:30:00,
2013-05-19 12:37:00,73.0,71.8,29.29,SE,135,0.0,0.0,96,0.00,,OVC240,1.00,VWS V14.01,2013-05-19 17:37:00,
2013-05-19 12:40:00,73.0,71.8,29.29,SE,135,0.0,0.0,96,0.00,,OVC240,1.00,VWS V14.01,2013-05-19 17:40:00,
2013-05-19 12:47:00,73.0,71.8,29.26,West,270,0.0,0.0,96,0.00,,OVC240,1.00,VWS V14.01,2013-05-19 17:47:00,
2013-05-19 12:50:00,73.0,71.8,29.26,West,270,0.0,0.0,96,0.00,,OVC240,1.00,VWS V14.01,2013-05-19 17:50:00,
2013-05-19 12:57:00,73.4,71.9,29.26,North,0,0.0,0.0,95,0.00,,OVC240,1.00,VWS V14.01,2013-05-19 17:57:00,
2013-05-19 13:00:00,73.4,71.9,29.26,North,0,0.0,0.0,95,0.00,,OVC240,1.00,VWS V14.01,2013-05-19 18:00:00,
2013-05-19 13:07:00,73.4,71.9,29.26,North,0,2.0,2.9,95,0.00,,OVC240,1.00,VWS V14.01,2013-05-19 18:07:00,
2013-05-19 13:10:00,73.4,71.9,29.26,North,0,2.0,2.9,95,0.00,,OVC240,1.00,VWS V14.01,2013-05-19 18:10:00,
2013-05-19 13:17:00,72.3,70.5,29.26,ENE,68,0.0,0.0,94,0.00,,OVC240,1.00,VWS V14.01,2013-05-19 18:17:00,
2013-05-19 13:20:00,72.3,70.5,29.26,ENE,68,0.0,0.0,94,0.00,,OVC240,1.00,VWS V14.01,2013-05-19 18:20:00,
2013-05-19 13:27:00,71.4,69.6,29.29,ENE,68,2.0,2.0,94,0.00,,OVC240,1.00,VWS V14.01,2013-05-19 18:27:00,
2013-05-19 13:30:00,71.4,69.6,29.29,ENE,68,2.0,2.0,94,0.00,,OVC240,1.00,VWS V14.01,2013-05-19 18:30:00,
2013-05-19 13:47:00,69.4,67.6,29.32,ENE,68,0.0,0.0,94,0.00,,OVC240,1.00,VWS V14.01,2013-05-19 18:47:00,
2013-05-19 13:50:00,69.4,67.6,29.32,ENE,68,0.0,0.0,94,0.00,,OVC240,1.00,VWS V14.01,2013-05-19 18:50:00,
2013-05-19 13:57:00,68.9,67.4,29.32,NE,45,1.3,1.3,95,0.00,,OVC240,1.00,VWS V14.01,2013-05-19 18:57:00,
2013-05-19 14:00:00,68.9,67.4,29.32,NE,45,1.3,1.3,95,0.00,,OVC240,1.00,VWS V14.01,2013-05-19 19:00:00,
2013-05-19 14:07:00,68.7,67.2,29.32,WNW,292,2.5,2.5,95,0.00,,OVC240,1.00,VWS V14.01,2013-05-19 19:07:00,
2013-05-19 14:10:00,68.7,67.2,29.32,WNW,292,2.5,2.5,95,0.00,,OVC240,1.00,VWS V14.01,2013-05-19 19:10:00,
2013-05-19 14:17:00,68.5,67.1,29.29,NW,315,2.0,4.9,95,0.00,,OVC240,1.00,VWS V14.01,2013-05-19 19:17:00,
2013-05-19 14:20:00,68.5,67.1,29.29,NW,315,2.0,4.9,95,0.00,,OVC240,1.00,VWS V14.01,2013-05-19 19:20:00,
2013-05-19 14:27:00,68.2,66.7,29.29,WNW,292,2.2,4.0,95,0.00,,OVC240,1.00,VWS V14.01,2013-05-19 19:27:00,
2013-05-19 14:30:00,68.2,66.7,29.29,WNW,292,2.2,4.0,95,0.00,,OVC240,1.00,VWS V14.01,2013-05-19 19:30:00,
2013-05-19 14:37:00,68.4,66.9,29.29,South,180,2.9,2.9,95,0.00,,OVC240,1.00,VWS V14.01,2013-05-19 19:37:00,
2013-05-19 14:40:00,68.4,66.9,29.29,South,180,2.9,2.9,95,0.00,,OVC240,1.00,VWS V14.01,2013-05-19 19:40:00,
2013-05-19 14:47:00,68.2,66.7,29.29,NE,45,2.0,2.0,95,0.00,,OVC240,1.00,VWS V14.01,2013-05-19 19:47:00,
2013-05-19 14:50:00,68.2,66.7,29.29,NE,45,2.0,2.0,95,0.00,,OVC240,1.00,VWS V14.01,2013-05-19 19:50:00,
2013-05-19 14:57:00,67.6,65.9,29.32,SE,135,3.8,4.3,94,0.00,,OVC240,1.00,VWS V14.01,2013-05-19 19:57:00,
2013-05-19 15:00:00,67.6,65.9,29.32,SE,135,3.8,4.3,94,0.00,,OVC240,1.00,VWS V14.01,2013-05-19 20:00:00,
2013-05-19 15:17:00,66.0,64.2,29.35,North,0,3.8,3.8,94,0.29,,OVC240,1.29,VWS V14.01,2013-05-19 20:17:00,
2013-05-19 15:27:00,65.5,64.0,29.29,NW,315,0.0,3.8,95,0.37,,OVC240,1.37,VWS V14.01,2013-05-19 20:27:00,
2013-05-19 15:35:00,65.5,64.0,29.29,NW,315,0.0,3.8,95,0.37,,OVC240,1.37,VWS V14.01,2013-05-19 20:35:00,
2013-05-19 15:40:00,64.9,63.8,29.29,West,270,2.0,2.0,96,0.41,,OVC240,1.41,VWS V14.01,2013-05-19 20:40:00,
2013-05-19 15:47:00,64.9,63.8,29.32,West,270,2.5,3.8,96,0.41,,OVC240,1.41,VWS V14.01,2013-05-19 20:47:00,
2013-05-19 15:50:00,64.9,63.8,29.32,West,270,2.5,3.8,96,0.41,,OVC240,1.41,VWS V14.01,2013-05-19 20:50:00,
2013-05-19 15:57:00,64.8,63.6,29.29,West,270,1.6,2.5,96,0.46,,OVC240,1.46,VWS V14.01,2013-05-19 20:57:00,
2013-05-19 16:00:00,64.8,63.6,29.29,West,270,1.6,2.5,96,0.46,,OVC240,1.46,VWS V14.01,2013-05-19 21:00:00,
2013-05-19 16:07:00,64.4,63.2,29.29,NW,315,2.5,2.5,96,0.54,,OVC240,1.54,VWS V14.01,2013-05-19 21:07:00,
2013-05-19 16:10:00,64.4,63.2,29.29,NW,315,2.5,2.5,96,0.54,,OVC240,1.54,VWS V14.01,2013-05-19 21:10:00,
2013-05-19 16:17:00,64.0,63.2,29.32,NW,315,2.5,2.5,97,0.25,,OVC240,1.54,VWS V14.01,2013-05-19 21:17:00,
2013-05-19 16:20:00,64.0,63.2,29.32,NW,315,2.5,2.5,97,0.25,,OVC240,1.54,VWS V14.01,2013-05-19 21:20:00,
2013-05-19 16:27:00,64.0,63.2,29.29,West,270,4.7,4.7,97,0.17,,OVC240,1.54,VWS V14.01,2013-05-19 21:27:00,
2013-05-19 16:30:00,64.0,63.2,29.29,West,270,4.7,4.7,97,0.17,,OVC240,1.54,VWS V14.01,2013-05-19 21:30:00,
2013-05-19 16:37:00,63.9,63.0,29.29,West,270,3.1,3.1,97,0.17,,OVC240,1.58,VWS V14.01,2013-05-19 21:37:00,
2013-05-19 16:40:00,63.9,63.0,29.29,West,270,3.1,3.1,97,0.17,,OVC240,1.58,VWS V14.01,2013-05-19 21:40:00,
2013-05-19 16:47:00,63.7,62.8,29.32,WSW,248,3.4,3.4,97,0.17,,OVC240,1.58,VWS V14.01,2013-05-19 21:47:00,
2013-05-19 16:50:00,63.7,62.8,29.32,WSW,248,3.4,3.4,97,0.17,,OVC240,1.58,VWS V14.01,2013-05-19 21:50:00,
2013-05-19 16:57:00,63.5,62.6,29.29,WNW,292,1.1,1.1,97,0.17,,OVC240,1.58,VWS V14.01,2013-05-19 21:57:00,
2013-05-19 17:00:00,63.5,62.6,29.29,WNW,292,1.1,1.1,97,0.17,,OVC240,1.58,VWS V14.01,2013-05-19 22:00:00,
2013-05-19 17:07:00,63.5,62.6,29.29,WSW,248,0.0,0.9,97,0.12,,OVC240,1.58,VWS V14.01,2013-05-19 22:07:00,
2013-05-19 17:10:00,63.5,62.6,29.29,WSW,248,0.0,0.9,97,0.12,,OVC240,1.58,VWS V14.01,2013-05-19 22:10:00,
2013-05-19 17:17:00,63.5,62.6,29.29,West,270,0.0,0.0,97,0.04,,OVC240,1.58,VWS V14.01,2013-05-19 22:17:00,
2013-05-19 17:20:00,63.5,62.6,29.29,West,270,0.0,0.0,97,0.04,,OVC240,1.58,VWS V14.01,2013-05-19 22:20:00,
2013-05-19 17:27:00,63.1,62.3,29.29,WNW,292,2.2,2.2,97,0.04,,OVC240,1.58,VWS V14.01,2013-05-19 22:27:00,
2013-05-19 17:30:00,63.1,62.3,29.29,WNW,292,2.2,2.2,97,0.04,,OVC240,1.58,VWS V14.01,2013-05-19 22:30:00,
2013-05-19 17:37:00,63.1,62.3,29.29,NW,315,1.3,1.3,97,0.04,,OVC240,1.58,VWS V14.01,2013-05-19 22:37:00,
2013-05-19 17:40:00,63.1,62.3,29.29,NW,315,1.3,1.3,97,0.04,,OVC240,1.58,VWS V14.01,2013-05-19 22:40:00,
2013-05-19 17:47:00,63.0,62.1,29.29,WNW,292,1.3,2.0,97,0.00,,OVC240,1.58,VWS V14.01,2013-05-19 22:47:00,
2013-05-19 17:50:00,63.0,62.1,29.29,WNW,292,1.3,2.0,97,0.00,,OVC240,1.58,VWS V14.01,2013-05-19 22:50:00,
2013-05-19 17:57:00,63.0,62.1,29.29,NE,45,1.3,1.6,97,0.00,,OVC240,1.58,VWS V14.01,2013-05-19 22:57:00,
2013-05-19 18:00:00,63.0,62.1,29.29,NE,45,1.3,1.6,97,0.00,,OVC240,1.58,VWS V14.01,2013-05-19 23:00:00,
2013-05-19 18:07:00,63.0,62.1,29.29,ESE,112,0.0,1.3,97,0.00,,OVC240,1.58,VWS V14.01,2013-05-19 23:07:00,
2013-05-19 18:10:00,63.0,62.1,29.29,ESE,112,0.0,1.3,97,0.00,,OVC240,1.58,VWS V14.01,2013-05-19 23:10:00,
2013-05-19 18:17:00,63.0,62.1,29.32,NE,45,0.0,0.0,97,0.00,,OVC240,1.58,VWS V14.01,2013-05-19 23:17:00,
2013-05-19 18:20:00,63.0,62.1,29.32,NE,45,0.0,0.0,97,0.00,,OVC240,1.58,VWS V14.01,2013-05-19 23:20:00,
2013-05-19 18:27:00,62.8,61.9,29.26,ESE,112,5.4,6.0,97,0.00,,OVC240,1.58,VWS V14.01,2013-05-19 23:27:00,
2013-05-19 18:30:00,62.8,61.9,29.26,ESE,112,5.4,6.0,97,0.00,,OVC240,1.58,VWS V14.01,2013-05-19 23:30:00,
2013-05-19 18:37:00,62.8,61.9,29.26,West,270,3.6,3.6,97,0.00,,OVC240,1.58,VWS V14.01,2013-05-19 23:37:00,
2013-05-19 18:40:00,62.8,61.9,29.26,West,270,3.6,3.6,97,0.00,,OVC240,1.58,VWS V14.01,2013-05-19 23:40:00,
2013-05-19 18:47:00,62.8,61.9,29.23,SSE,158,0.0,0.0,97,0.00,,OVC240,1.58,VWS V14.01,2013-05-19 23:47:00,
2013-05-19 18:50:00,62.8,61.9,29.23,SSE,158,0.0,0.0,97,0.00,,OVC240,1.58,VWS V14.01,2013-05-19 23:50:00,
2013-05-19 18:57:00,63.1,62.6,29.20,West,270,2.9,3.4,98,0.00,,OVC240,1.58,VWS V14.01,2013-05-19 23:57:00,
2013-05-19 19:00:00,63.1,62.6,29.20,West,270,2.9,3.4,98,0.00,,OVC240,1.58,VWS V14.01,2013-05-20 00:00:00,
2013-05-19 19:07:00,63.3,62.8,29.20,West,270,2.0,3.4,98,0.00,,OVC240,1.58,VWS V14.01,2013-05-20 00:07:00,
2013-05-19 19:10:00,63.3,62.8,29.20,West,270,2.0,3.4,98,0.00,,OVC240,1.58,VWS V14.01,2013-05-20 00:10:00,
2013-05-19 19:17:00,63.5,62.9,29.20,NW,315,3.8,3.8,98,0.00,,OVC240,1.58,VWS V14.01,2013-05-20 00:17:00,
2013-05-19 19:20:00,63.5,62.9,29.20,NW,315,3.8,3.8,98,0.00,,OVC240,1.58,VWS V14.01,2013-05-20 00:20:00,
2013-05-19 19:27:00,63.7,62.8,29.20,NE,45,0.0,0.0,97,0.00,,OVC240,1.58,VWS V14.01,2013-05-20 00:27:00,
2013-05-19 19:30:00,63.7,62.8,29.20,NE,45,0.0,0.0,97,0.00,,OVC240,1.58,VWS V14.01,2013-05-20 00:30:00,
2013-05-19 19:37:00,63.1,62.3,29.20,West,270,2.0,2.0,97,0.00,,OVC240,1.58,VWS V14.01,2013-05-20 00:37:00,
2013-05-19 19:40:00,63.1,62.3,29.20,West,270,2.0,2.0,97,0.00,,OVC240,1.58,VWS V14.01,2013-05-20 00:40:00,
2013-05-19 19:47:00,63.0,62.1,29.20,North,0,3.1,4.0,97,0.00,,OVC240,1.58,VWS V14.01,2013-05-20 00:47:00,
2013-05-19 19:50:00,63.0,62.1,29.20,North,0,3.1,4.0,97,0.00,,OVC240,1.58,VWS V14.01,2013-05-20 00:50:00,
2013-05-19 19:57:00,62.8,61.9,29.26,North,0,2.0,2.5,97,0.00,,OVC240,1.58,VWS V14.01,2013-05-20 00:57:00,
2013-05-19 20:00:00,62.8,61.9,29.26,North,0,2.0,2.5,97,0.00,,OVC240,1.58,VWS V14.01,2013-05-20 01:00:00,
2013-05-19 20:07:00,62.6,61.7,29.26,NNE,22,3.1,3.1,97,0.00,,OVC240,1.58,VWS V14.01,2013-05-20 01:07:00,
2013-05-19 20:10:00,62.6,61.7,29.26,NNE,22,3.1,3.1,97,0.00,,OVC240,1.58,VWS V14.01,2013-05-20 01:10:00,
2013-05-19 20:27:00,62.4,61.8,29.26,NNW,338,0.9,0.9,98,0.00,,OVC240,1.58,VWS V14.01,2013-05-20 01:27:00,
2013-05-19 20:30:00,62.4,61.8,29.26,NNW,338,0.9,0.9,98,0.00,,OVC240,1.58,VWS V14.01,2013-05-20 01:30:00,
2013-05-19 20:37:00,62.1,61.5,29.26,NNW,338,0.0,0.0,98,0.00,,OVC240,1.58,VWS V14.01,2013-05-20 01:37:00,
2013-05-19 20:40:00,62.1,61.5,29.26,NNW,338,0.0,0.0,98,0.00,,OVC240,1.58,VWS V14.01,2013-05-20 01:40:00,
2013-05-19 20:47:00,62.2,61.7,29.26,North,0,0.0,1.1,98,0.00,,OVC240,1.58,VWS V14.01,2013-05-20 01:47:00,
2013-05-19 20:50:00,62.2,61.7,29.26,North,0,0.0,1.1,98,0.00,,OVC240,1.58,VWS V14.01,2013-05-20 01:50:00,
2013-05-19 20:57:00,61.7,61.1,29.26,North,0,0.0,0.0,98,0.00,,OVC240,1.58,VWS V14.01,2013-05-20 01:57:00,
2013-05-19 21:00:00,61.7,61.1,29.26,North,0,0.0,0.0,98,0.00,,OVC240,1.58,VWS V14.01,2013-05-20 02:00:00,
2013-05-19 21:07:00,61.3,60.8,29.26,NW,315,0.0,0.0,98,0.00,,OVC240,1.58,VWS V14.01,2013-05-20 02:07:00,
2013-05-19 21:10:00,61.3,60.8,29.26,NW,315,0.0,0.0,98,0.00,,OVC240,1.58,VWS V14.01,2013-05-20 02:10:00,
2013-05-19 21:17:00,61.0,60.4,29.26,NW,315,0.0,0.0,98,0.00,,OVC240,1.58,VWS V14.01,2013-05-20 02:17:00,
2013-05-19 21:20:00,61.0,60.4,29.26,NW,315,0.0,0.0,98,0.00,,OVC240,1.58,VWS V14.01,2013-05-20 02:20:00,
2013-05-19 21:27:00,60.8,60.2,29.26,NW,315,0.0,0.0,98,0.00,,OVC240,1.58,VWS V14.01,2013-05-20 02:27:00,
2013-05-19 21:30:00,60.8,60.2,29.26,NW,315,0.0,0.0,98,0.00,,OVC240,1.58,VWS V14.01,2013-05-20 02:30:00,
2013-05-19 21:37:00,60.6,60.1,29.26,NW,315,0.0,0.0,98,0.00,,OVC240,1.58,VWS V14.01,2013-05-20 02:37:00,
2013-05-19 21:40:00,60.6,60.1,29.26,NW,315,0.0,0.0,98,0.00,,OVC240,1.58,VWS V14.01,2013-05-20 02:40:00,
2013-05-19 21:47:00,60.4,59.9,29.26,NW,315,0.0,0.0,98,0.00,,OVC240,1.58,VWS V14.01,2013-05-20 02:47:00,
2013-05-19 21:50:00,60.4,59.9,29.26,NW,315,0.0,0.0,98,0.00,,OVC240,1.58,VWS V14.01,2013-05-20 02:50:00,
2013-05-19 21:57:00,60.1,59.5,29.23,NW,315,0.0,0.0,98,0.00,,OVC240,1.58,VWS V14.01,2013-05-20 02:57:00,
2013-05-19 22:00:00,60.1,59.5,29.23,NW,315,0.0,0.0,98,0.00,,OVC240,1.58,VWS V14.01,2013-05-20 03:00:00,
2013-05-19 22:07:00,59.9,59.3,29.23,NW,315,0.0,0.0,98,0.00,,OVC240,1.58,VWS V14.01,2013-05-20 03:07:00,
2013-05-19 22:10:00,59.9,59.3,29.23,NW,315,0.0,0.0,98,0.00,,OVC240,1.58,VWS V14.01,2013-05-20 03:10:00,
2013-05-19 22:17:00,59.7,59.2,29.26,NW,315,0.0,0.0,98,0.00,,OVC240,1.58,VWS V14.01,2013-05-20 03:17:00,
2013-05-19 22:20:00,59.7,59.2,29.26,NW,315,0.0,0.0,98,0.00,,OVC240,1.58,VWS V14.01,2013-05-20 03:20:00,
2013-05-19 22:27:00,59.5,59.0,29.26,NW,315,0.0,0.0,98,0.00,,OVC240,1.58,VWS V14.01,2013-05-20 03:27:00,
2013-05-19 22:30:00,59.5,59.0,29.26,NW,315,0.0,0.0,98,0.00,,OVC240,1.58,VWS V14.01,2013-05-20 03:30:00,
2013-05-19 22:37:00,59.5,59.0,29.26,NW,315,0.0,0.0,98,0.00,,OVC240,1.58,VWS V14.01,2013-05-20 03:37:00,
2013-05-19 22:40:00,59.5,59.0,29.26,NW,315,0.0,0.0,98,0.00,,OVC240,1.58,VWS V14.01,2013-05-20 03:40:00,
2013-05-19 22:47:00,59.4,58.8,29.26,NW,315,0.0,0.0,98,0.00,,OVC240,1.58,VWS V14.01,2013-05-20 03:47:00,
2013-05-19 22:50:00,59.4,58.8,29.26,NW,315,0.0,0.0,98,0.00,,OVC240,1.58,VWS V14.01,2013-05-20 03:50:00,
2013-05-19 22:57:00,59.2,58.6,29.26,NW,315,0.0,0.0,98,0.00,,OVC240,1.58,VWS V14.01,2013-05-20 03:57:00,
2013-05-19 23:00:00,59.2,58.6,29.26,NW,315,0.0,0.0,98,0.00,,OVC240,1.58,VWS V14.01,2013-05-20 04:00:00,
2013-05-19 23:07:00,59.2,58.6,29.26,North,0,0.0,0.0,98,0.00,,OVC240,1.58,VWS V14.01,2013-05-20 04:07:00,
2013-05-19 23:10:00,59.2,58.6,29.26,North,0,0.0,0.0,98,0.00,,OVC240,1.58,VWS V14.01,2013-05-20 04:10:00,
2013-05-19 23:17:00,59.2,58.6,29.29,North,0,0.0,0.0,98,0.00,,OVC240,1.58,VWS V14.01,2013-05-20 04:17:00,
2013-05-19 23:20:00,59.2,58.6,29.29,North,0,0.0,0.0,98,0.00,,OVC240,1.58,VWS V14.01,2013-05-20 04:20:00,
2013-05-19 23:27:00,58.8,58.3,29.29,North,0,0.0,0.0,98,0.00,,OVC240,1.58,VWS V14.01,2013-05-20 04:27:00,
2013-05-19 23:30:00,58.8,58.3,29.29,North,0,0.0,0.0,98,0.00,,OVC240,1.58,VWS V14.01,2013-05-20 04:30:00,
2013-05-19 23:37:00,58.6,58.1,29.29,North,0,0.0,0.0,98,0.00,,OVC240,1.58,VWS V14.01,2013-05-20 04:37:00,
2013-05-19 23:40:00,58.6,58.1,29.29,North,0,0.0,0.0,98,0.00,,OVC240,1.58,VWS V14.01,2013-05-20 04:40:00,
2013-05-19 23:47:00,58.5,57.9,29.29,North,0,0.0,0.0,98,0.00,,OVC240,1.58,VWS V14.01,2013-05-20 04:47:00,
2013-05-19 23:50:00,58.5,57.9,29.29,North,0,0.0,0.0,98,0.00,,OVC240,1.58,VWS V14.01,2013-05-20 04:50:00,
2013-05-19 23:57:00,58.3,57.7,29.29,North,0,0.0,0.0,98,0.00,,OVC240,0.00,VWS V14.01,2013-05-20 04:57:00,